createdAt,value
2022-11-05T00:02:27.271Z,9.28
2022-11-05T00:07:46.961Z,9.03
2022-11-05T00:13:06.849Z,8.96
2022-11-05T00:18:08.285Z,9.06
2022-11-05T00:23:28.190Z,8.99
2022-11-05T00:28:29.433Z,8.96
2022-11-05T00:33:30.692Z,9.14
2022-11-05T00:38:31.925Z,9.21
2022-11-05T00:43:52.132Z,9.37
2022-11-05T00:49:12.011Z,9.20
2022-11-05T00:54:13.225Z,9.26
2022-11-05T00:59:14.430Z,9.32
2022-11-05T01:04:15.714Z,9.27
2022-11-05T01:09:16.945Z,9.35
2022-11-05T01:14:18.223Z,9.72
2022-11-05T01:19:19.472Z,9.75
2022-11-05T01:24:20.714Z,9.82
2022-11-05T01:29:21.958Z,9.68
2022-11-05T01:34:23.198Z,9.39
2022-11-05T01:39:24.521Z,9.06
2022-11-05T01:44:25.749Z,9.34
2022-11-05T01:49:26.980Z,9.57
2022-11-05T01:54:28.192Z,9.73
2022-11-05T01:59:29.435Z,9.87
2022-11-05T02:04:30.654Z,9.72
2022-11-05T02:09:31.971Z,9.78
2022-11-05T02:14:33.182Z,9.53
2022-11-05T02:19:34.443Z,9.57
2022-11-05T02:24:35.698Z,9.67
2022-11-05T02:29:36.986Z,9.79
2022-11-05T02:34:38.255Z,9.79
2022-11-05T02:39:39.474Z,9.81
2022-11-05T02:44:40.806Z,9.43
2022-11-05T02:49:42.048Z,8.86
2022-11-05T02:54:43.301Z,9.01
2022-11-05T02:59:44.645Z,9.31
2022-11-05T03:04:45.928Z,9.24
2022-11-05T03:09:47.220Z,9.44
2022-11-05T03:14:48.458Z,9.46
2022-11-05T03:19:50.194Z,9.40
2022-11-05T03:24:51.463Z,9.29
2022-11-05T03:29:52.692Z,9.24
2022-11-05T03:34:53.914Z,9.09
2022-11-05T03:39:55.233Z,9.13
2022-11-05T03:44:56.494Z,9.10
2022-11-05T03:49:57.925Z,9.09
2022-11-05T03:54:59.208Z,8.90
2022-11-05T04:00:00.466Z,8.85
2022-11-05T04:05:01.764Z,8.69
2022-11-05T04:10:21.868Z,8.88
2022-11-05T04:15:23.173Z,8.73
2022-11-05T04:20:43.249Z,8.75
2022-11-05T04:25:44.486Z,8.93
2022-11-05T04:30:45.731Z,9.00
2022-11-05T04:35:46.977Z,8.99
2022-11-05T04:40:48.258Z,9.03
2022-11-05T04:45:49.549Z,9.12
2022-11-05T04:50:50.803Z,9.21
2022-11-05T04:55:52.043Z,9.24
2022-11-05T05:00:53.372Z,9.13
2022-11-05T05:05:57.188Z,9.27
2022-11-05T05:11:02.072Z,9.39
2022-11-05T05:16:03.285Z,9.31
2022-11-05T05:21:23.437Z,9.23
2022-11-05T05:26:24.744Z,9.03
2022-11-05T05:31:26.258Z,9.15
2022-11-05T05:36:27.514Z,9.38
2022-11-05T05:41:28.722Z,9.50
2022-11-05T05:46:30.000Z,9.63
2022-11-05T05:51:31.201Z,9.68
2022-11-05T05:56:32.426Z,9.47
2022-11-05T06:01:33.797Z,9.52
2022-11-05T06:06:35.160Z,9.41
2022-11-05T06:11:36.418Z,9.20
2022-11-05T06:16:39.023Z,9.36
2022-11-05T06:21:40.336Z,9.37
2022-11-05T06:26:43.257Z,9.37
2022-11-05T06:31:44.557Z,9.30
2022-11-05T06:36:45.782Z,9.12
2022-11-05T06:42:11.988Z,9.35
2022-11-05T06:47:08.357Z,9.48
2022-11-05T06:52:09.726Z,9.48
2022-11-05T06:57:11.097Z,9.19
2022-11-05T07:02:13.750Z,9.54
2022-11-05T07:07:15.079Z,9.69
2022-11-05T07:12:16.295Z,9.90
2022-11-05T07:17:17.517Z,9.72
2022-11-05T07:22:18.726Z,9.80
2022-11-05T07:27:19.951Z,9.76
2022-11-05T07:37:46.754Z,10.01
2022-11-05T07:42:48.030Z,10.14
2022-11-05T07:47:49.325Z,10.33
2022-11-05T07:52:50.537Z,10.43
2022-11-05T07:57:51.795Z,10.62
2022-11-05T08:02:53.194Z,10.30
2022-11-05T08:07:55.024Z,10.21
2022-11-05T08:12:56.269Z,10.45
2022-11-05T08:17:57.465Z,10.92
2022-11-05T08:22:58.725Z,11.10
2022-11-05T08:28:00.011Z,11.06
2022-11-05T08:33:01.240Z,10.69
2022-11-05T08:38:02.945Z,10.65
2022-11-05T08:43:04.343Z,11.08
2022-11-05T08:48:05.560Z,10.14
2022-11-05T08:53:06.761Z,10.02
2022-11-05T08:58:08.039Z,9.91
2022-11-05T09:03:09.732Z,10.26
2022-11-05T09:08:11.524Z,10.34
2022-11-05T09:13:18.236Z,10.17
2022-11-05T09:18:20.936Z,10.32
2022-11-05T09:23:22.152Z,10.16
2022-11-05T09:28:24.535Z,10.52
2022-11-05T09:33:25.743Z,10.60
2022-11-05T09:38:26.983Z,11.30
2022-11-05T09:43:31.639Z,11.85
2022-11-05T09:48:33.469Z,11.94
2022-11-05T09:53:34.712Z,11.94
2022-11-05T09:58:35.929Z,11.96
2022-11-05T10:03:37.165Z,11.96
2022-11-05T10:08:38.364Z,12.10
2022-11-05T10:13:39.588Z,12.18
2022-11-05T10:18:40.807Z,12.13
2022-11-05T10:23:42.016Z,12.43
2022-11-05T10:28:43.216Z,12.62
2022-11-05T10:33:44.518Z,12.37
2022-11-05T10:38:45.781Z,12.84
2022-11-05T10:43:46.998Z,12.92
2022-11-05T10:48:48.185Z,13.13
2022-11-05T10:53:49.381Z,12.74
2022-11-05T10:58:50.589Z,12.89
2022-11-05T11:03:51.860Z,12.66
2022-11-05T11:08:53.136Z,12.74
2022-11-05T11:13:54.364Z,12.65
2022-11-05T11:18:56.031Z,12.14
2022-11-05T11:23:57.397Z,12.18
2022-11-05T11:28:58.609Z,12.39
2022-11-05T11:33:59.862Z,12.95
2022-11-05T11:39:01.173Z,13.24
2022-11-05T11:44:02.376Z,13.56
2022-11-05T11:49:03.640Z,14.47
2022-11-05T11:54:04.916Z,15.23
2022-11-05T11:59:06.107Z,14.69
2022-11-05T12:04:07.344Z,14.78
2022-11-05T12:09:08.571Z,14.37
2022-11-05T12:14:09.781Z,13.87
2022-11-05T12:19:10.989Z,13.66
2022-11-05T12:24:14.254Z,13.55
2022-11-05T12:29:19.451Z,13.43
2022-11-05T12:34:20.897Z,13.18
2022-11-05T12:39:22.115Z,12.91
2022-11-05T12:44:23.601Z,12.83
2022-11-05T12:49:25.134Z,12.71
2022-11-05T12:54:26.364Z,12.27
2022-11-05T12:59:27.572Z,12.34
2022-11-05T13:04:28.768Z,12.24
2022-11-05T13:09:30.029Z,11.86
2022-11-05T13:14:31.272Z,11.71
2022-11-05T13:19:32.509Z,11.60
2022-11-05T13:24:33.716Z,11.96
2022-11-05T13:29:34.929Z,12.15
2022-11-05T13:34:37.749Z,12.10
2022-11-05T13:39:39.233Z,12.01
2022-11-05T13:44:40.503Z,11.87
2022-11-05T13:49:41.696Z,11.28
2022-11-05T13:54:42.962Z,11.24
2022-11-05T13:59:44.223Z,10.96
2022-11-05T14:04:45.672Z,11.14
2022-11-05T14:09:46.974Z,11.05
2022-11-05T14:14:48.203Z,11.09
2022-11-05T14:19:49.437Z,11.39
2022-11-05T14:24:50.710Z,11.33
2022-11-05T14:29:51.916Z,11.35
2022-11-05T14:34:53.120Z,11.65
2022-11-05T14:39:54.685Z,11.83
2022-11-05T14:44:55.956Z,11.66
2022-11-05T14:49:57.196Z,11.58
2022-11-05T14:54:58.681Z,11.70
2022-11-05T15:00:01.041Z,11.42
2022-11-05T15:05:02.584Z,11.22
2022-11-05T15:10:09.884Z,11.16
2022-11-05T15:15:14.140Z,10.89
2022-11-05T15:20:35.839Z,10.97
2022-11-05T15:25:40.024Z,11.15
2022-11-05T15:30:41.312Z,11.31
2022-11-05T15:35:42.630Z,11.01
2022-11-05T15:40:43.930Z,11.02
2022-11-05T15:45:45.197Z,11.12
2022-11-05T15:50:46.552Z,10.58
2022-11-05T15:55:47.851Z,10.94
2022-11-05T16:00:49.225Z,10.59
2022-11-05T16:05:50.653Z,10.60
2022-11-05T16:10:52.000Z,10.55
2022-11-05T16:15:53.306Z,10.54
2022-11-05T16:20:54.638Z,10.08
2022-11-05T16:25:55.974Z,10.10
2022-11-05T16:30:57.207Z,9.92
2022-11-05T16:35:58.492Z,9.93
2022-11-05T16:41:00.970Z,9.66
2022-11-05T16:46:02.324Z,9.61
2022-11-05T16:51:03.731Z,9.50
2022-11-05T16:56:05.037Z,9.62
2022-11-05T17:01:07.890Z,9.72
2022-11-05T17:06:09.388Z,9.70
2022-11-05T17:11:10.733Z,9.60
2022-11-05T17:16:12.064Z,9.88
2022-11-05T17:21:14.161Z,10.09
2022-11-05T17:26:16.033Z,10.12
2022-11-05T17:31:17.948Z,10.18
2022-11-05T17:36:19.453Z,10.26
2022-11-05T17:41:20.752Z,10.10
2022-11-05T17:46:22.212Z,10.16
2022-11-05T17:51:23.477Z,10.26
2022-11-05T17:56:34.089Z,10.27
2022-11-05T18:01:41.363Z,10.24
2022-11-05T18:06:43.051Z,10.15
2022-11-05T18:11:44.308Z,10.00
2022-11-05T18:16:46.047Z,9.83
2022-11-05T18:21:47.358Z,10.05
2022-11-05T18:26:48.636Z,10.12
2022-11-05T18:31:50.066Z,10.17
2022-11-05T18:36:56.188Z,10.24
2022-11-05T18:41:57.944Z,10.19
2022-11-05T18:46:59.247Z,10.01
2022-11-05T18:52:00.587Z,9.97
2022-11-05T18:57:02.331Z,9.94
2022-11-05T19:02:03.959Z,9.77
2022-11-05T19:07:08.377Z,9.95
2022-11-05T19:12:09.750Z,9.80
2022-11-05T19:17:11.024Z,9.62
2022-11-05T19:22:12.242Z,9.28
2022-11-05T19:27:13.823Z,9.20
2022-11-05T19:32:17.501Z,9.02
2022-11-05T19:37:19.844Z,8.98
2022-11-05T19:42:21.070Z,8.99
2022-11-05T19:47:36.164Z,9.15
2022-11-05T19:52:42.955Z,9.10
2022-11-05T19:57:47.766Z,9.10
2022-11-05T20:02:53.247Z,8.96
2022-11-05T20:07:54.895Z,9.11
2022-11-05T20:12:57.557Z,8.91
2022-11-05T20:17:58.928Z,8.96
2022-11-05T20:23:00.235Z,8.89
2022-11-05T20:28:01.577Z,8.70
2022-11-05T20:33:03.713Z,8.83
2022-11-05T20:38:05.067Z,8.75
2022-11-05T20:43:30.341Z,8.49
2022-11-05T20:48:32.513Z,8.60
2022-11-05T20:53:33.865Z,8.42
2022-11-05T20:58:35.214Z,8.71
2022-11-05T21:03:36.529Z,8.28
2022-11-05T21:08:40.055Z,8.30
2022-11-05T21:13:42.400Z,8.36
2022-11-05T21:18:44.318Z,8.58
2022-11-05T21:23:51.078Z,8.28
2022-11-05T21:28:52.365Z,7.99
2022-11-05T21:33:55.298Z,8.17
2022-11-05T21:38:56.807Z,8.34
2022-11-05T21:43:58.077Z,8.53
2022-11-05T21:48:59.539Z,8.64
2022-11-05T21:54:19.445Z,8.80
2022-11-05T21:59:39.327Z,9.00
2022-11-05T22:04:40.624Z,9.04
2022-11-05T22:09:41.935Z,9.04
2022-11-05T22:14:43.277Z,8.99
2022-11-05T22:19:45.029Z,8.90
2022-11-05T22:24:46.725Z,8.83
2022-11-05T22:29:47.959Z,8.97
2022-11-05T22:34:49.398Z,8.84
2022-11-05T22:39:50.854Z,8.87
2022-11-05T22:44:52.317Z,9.01
2022-11-05T22:49:53.582Z,9.00
2022-11-05T22:54:56.797Z,8.82
2022-11-05T22:59:58.041Z,8.68
2022-11-05T23:04:59.269Z,8.44
2022-11-05T23:10:19.407Z,8.62
2022-11-05T23:15:58.944Z,8.58
2022-11-05T23:21:22.830Z,8.76
2022-11-05T23:26:43.173Z,8.78
2022-11-05T23:32:03.029Z,8.80
2022-11-05T23:37:23.151Z,8.76
2022-11-05T23:42:42.704Z,8.52
2022-11-05T23:48:02.733Z,8.51
2022-11-05T23:53:04.217Z,8.55
2022-11-05T23:58:08.427Z,8.59
